Machagai, Argentina
Current Conditions -  °F | °C
As of 12:00 AM on Wednesday 22 Oct 2014 (Local Time) from SARE Reporting Station
Clear Clear  
Wind Chill: 21°   Ceiling: Unl
Heat Index: 21°   Visibility: 6mi
Dew Point: 15°   Wind: 5mph
Humidity: 68%   Direction: 110°ESE
Pressure: 30.03"   Gusts: NA
Location:  26.93°S, 60.05°W
Report Text: SARE 220300Z 11004KT CAVOK 21/15 Q1017
Loading
Personal Weather Stations






























Interactive Weather Map
Tropical Storm Tracking
New forecast layout! Learn more

10-Day Weather Forecast

Advertisements
Track Severe Weather on mobile